createdAt,value
2022-10-22T00:04:20.227Z,6.82
2022-10-22T00:09:21.661Z,4.78
2022-10-22T00:14:23.060Z,3.25
2022-10-22T00:19:24.453Z,4.65
2022-10-22T00:24:26.117Z,4.10
2022-10-22T00:29:27.563Z,4.63
2022-10-22T00:34:28.940Z,4.38
2022-10-22T00:39:30.332Z,2.42
2022-10-22T00:44:50.565Z,3.10
2022-10-22T00:49:53.023Z,3.00
2022-10-22T00:54:54.568Z,3.00
2022-10-22T00:59:57.419Z,3.08
2022-10-22T01:04:58.833Z,2.03
2022-10-22T01:10:04.944Z,2.15
2022-10-22T01:15:38.597Z,1.75
2022-10-22T01:20:46.096Z,2.85
2022-10-22T01:25:50.192Z,6.40
2022-10-22T01:30:53.285Z,1.65
2022-10-22T01:35:55.112Z,2.10
2022-10-22T01:40:56.645Z,2.22
2022-10-22T01:45:59.040Z,2.25
2022-10-22T01:51:09.617Z,2.03
2022-10-22T01:56:10.987Z,3.10
2022-10-22T02:01:22.875Z,4.03
2022-10-22T02:06:24.901Z,6.18
2022-10-22T02:11:26.568Z,2.65
2022-10-22T02:16:30.064Z,2.97
2022-10-22T02:21:31.777Z,3.47
2022-10-22T02:26:35.661Z,2.90
2022-10-22T02:31:38.880Z,1.88
2022-10-22T02:36:44.297Z,2.70
2022-10-22T02:41:47.255Z,2.35
2022-10-22T02:46:49.198Z,1.75
2022-10-22T02:51:50.655Z,1.98
2022-10-22T02:56:52.049Z,2.65
2022-10-22T03:01:53.472Z,2.70
2022-10-22T03:06:54.908Z,2.85
2022-10-22T03:11:56.336Z,2.97
2022-10-22T03:16:57.728Z,3.53
2022-10-22T03:22:01.221Z,1.98
2022-10-22T03:27:02.640Z,1.70
2022-10-22T03:32:04.125Z,3.17
2022-10-22T03:37:05.796Z,2.05
2022-10-22T03:42:07.753Z,3.60
2022-10-22T03:47:09.433Z,4.18
2022-10-22T03:52:12.201Z,2.40
2022-10-22T03:57:13.639Z,2.38
2022-10-22T04:02:15.044Z,2.95
2022-10-22T04:07:16.427Z,2.22
2022-10-22T04:12:17.817Z,2.20
2022-10-22T04:17:19.277Z,1.90
2022-10-22T04:22:20.663Z,3.35
2022-10-22T04:27:22.059Z,5.10
2022-10-22T04:32:23.483Z,2.22
2022-10-22T04:37:24.856Z,2.30
2022-10-22T04:42:26.284Z,5.07
2022-10-22T04:47:27.769Z,2.20
2022-10-22T04:52:29.168Z,2.45
2022-10-22T04:57:31.259Z,4.03
2022-10-22T05:02:32.692Z,2.90
2022-10-22T05:07:34.084Z,5.28
2022-10-22T05:12:35.527Z,3.03
2022-10-22T05:17:37.599Z,2.83
2022-10-22T05:22:39.096Z,7.05
2022-10-22T05:27:40.720Z,2.88
2022-10-22T05:32:42.309Z,2.25
2022-10-22T05:37:43.967Z,2.35
2022-10-22T05:42:45.529Z,2.78
2022-10-22T05:47:46.935Z,2.65
2022-10-22T05:52:48.345Z,3.10
2022-10-22T05:57:50.244Z,2.42
2022-10-22T06:02:51.844Z,8.15
2022-10-22T06:07:53.510Z,3.47
2022-10-22T06:12:54.941Z,1.67
2022-10-22T06:17:56.432Z,2.60
2022-10-22T06:22:58.288Z,2.92
2022-10-22T06:27:59.836Z,3.20
2022-10-22T06:33:01.220Z,3.05
2022-10-22T06:38:02.621Z,2.58
2022-10-22T06:43:04.079Z,4.63
2022-10-22T06:48:05.645Z,2.28
2022-10-22T06:53:07.129Z,3.05
2022-10-22T06:58:08.597Z,3.33
2022-10-22T07:03:12.784Z,4.28
2022-10-22T07:08:14.212Z,3.40
2022-10-22T07:13:16.041Z,4.97
2022-10-22T07:18:17.475Z,3.72
2022-10-22T07:23:18.970Z,3.70
2022-10-22T07:28:20.640Z,3.70
2022-10-22T07:33:22.101Z,4.00
2022-10-22T07:38:23.536Z,4.20
2022-10-22T07:43:25.065Z,4.65
2022-10-22T07:48:26.591Z,2.45
2022-10-22T07:53:28.037Z,5.85
2022-10-22T07:58:29.609Z,4.22
2022-10-22T08:03:31.387Z,8.10
2022-10-22T08:08:33.530Z,4.85
2022-10-22T08:13:34.981Z,3.95
2022-10-22T08:18:36.423Z,3.63
2022-10-22T08:23:38.002Z,4.05
2022-10-22T08:28:39.452Z,3.70
2022-10-22T08:33:41.732Z,8.50
2022-10-22T08:38:43.229Z,4.00
2022-10-22T08:43:47.691Z,2.95
2022-10-22T08:49:00.316Z,6.30
2022-10-22T08:54:13.881Z,5.43
2022-10-22T08:59:23.243Z,5.63
2022-10-22T09:04:41.442Z,5.28
2022-10-22T09:09:46.796Z,5.55
2022-10-22T09:14:49.120Z,6.32
2022-10-22T09:19:59.484Z,7.20
2022-10-22T09:30:02.398Z,7.00
2022-10-22T09:35:03.907Z,6.53
2022-10-22T09:40:05.788Z,9.60
2022-10-22T09:45:07.554Z,8.32
2022-10-22T09:50:12.161Z,8.30
2022-10-22T09:55:18.333Z,7.20
2022-10-22T10:00:20.025Z,7.40
2022-10-22T10:05:25.271Z,7.07
2022-10-22T10:10:30.952Z,8.52
2022-10-22T10:15:36.656Z,7.18
2022-10-22T10:20:54.256Z,7.50
2022-10-22T10:26:01.381Z,6.72
2022-10-22T10:31:31.386Z,8.32
2022-10-22T10:36:44.753Z,5.72
2022-10-22T10:41:46.164Z,6.57
2022-10-22T10:46:47.580Z,8.38
2022-10-22T10:51:55.061Z,7.28
2022-10-22T10:57:04.592Z,11.13
2022-10-22T11:02:22.325Z,9.23
2022-10-22T11:07:44.714Z,7.60
2022-10-22T11:12:48.895Z,8.88
2022-10-22T11:17:51.663Z,8.05
2022-10-22T11:23:22.998Z,10.00
2022-10-22T11:28:45.780Z,10.85
2022-10-22T11:33:57.338Z,9.90
2022-10-22T11:39:06.594Z,12.32
2022-10-22T11:44:11.948Z,11.10
2022-10-22T11:49:13.364Z,12.10
2022-10-22T11:54:33.422Z,12.85
2022-10-22T11:59:55.144Z,11.73
2022-10-22T12:05:16.475Z,13.20
2022-10-22T12:10:21.949Z,13.65
2022-10-22T12:15:25.879Z,15.45
2022-10-22T12:20:28.160Z,14.63
2022-10-22T12:25:35.459Z,13.10
2022-10-22T12:30:37.313Z,14.10
2022-10-22T12:35:43.023Z,9.50
2022-10-22T12:40:48.683Z,17.30
2022-10-22T12:45:50.776Z,14.32
2022-10-22T12:50:53.878Z,17.98
2022-10-22T12:55:56.660Z,16.85
2022-10-22T13:01:02.117Z,15.77
2022-10-22T13:06:18.842Z,21.55
2022-10-22T13:11:20.604Z,12.88
2022-10-22T13:16:24.534Z,12.93
2022-10-22T13:21:37.916Z,14.73
2022-10-22T13:26:39.333Z,16.67
2022-10-22T13:31:45.800Z,13.43
2022-10-22T13:36:47.906Z,14.32
2022-10-22T13:41:52.641Z,13.05
2022-10-22T13:46:54.089Z,12.00
2022-10-22T13:51:55.517Z,12.73
2022-10-22T13:56:56.984Z,13.57
2022-10-22T14:01:58.404Z,14.55
2022-10-22T14:07:03.654Z,17.17
2022-10-22T14:12:16.013Z,22.48
2022-10-22T14:17:17.640Z,16.20
2022-10-22T14:22:19.664Z,18.60
2022-10-22T14:27:21.133Z,16.95
2022-10-22T14:32:22.594Z,11.50
2022-10-22T14:37:24.941Z,11.85
2022-10-22T14:42:26.361Z,16.27
2022-10-22T14:47:27.786Z,13.75
2022-10-22T14:52:29.217Z,11.90
2022-10-22T14:57:30.666Z,11.00
2022-10-22T15:02:32.216Z,9.98
2022-10-22T15:07:33.981Z,11.63
2022-10-22T15:12:35.490Z,16.15
2022-10-22T15:17:37.139Z,15.43
2022-10-22T15:22:38.720Z,13.38
2022-10-22T15:27:40.306Z,13.98
2022-10-22T15:32:42.151Z,12.40
2022-10-22T15:37:43.893Z,20.30
2022-10-22T15:42:46.637Z,18.98
2022-10-22T15:47:48.601Z,17.05
2022-10-22T15:52:50.517Z,15.13
2022-10-22T15:57:57.123Z,15.75
2022-10-22T16:03:00.725Z,17.38
2022-10-22T16:08:02.149Z,21.13
2022-10-22T16:13:04.878Z,17.13
2022-10-22T16:18:06.270Z,17.48
2022-10-22T16:23:07.937Z,22.60
2022-10-22T16:28:09.852Z,18.15
2022-10-22T16:33:11.575Z,20.75
2022-10-22T16:38:12.989Z,19.67
2022-10-22T16:43:14.409Z,22.30
2022-10-22T16:48:18.969Z,24.75
2022-10-22T16:53:20.373Z,20.75
2022-10-22T16:58:21.813Z,20.92
2022-10-22T17:03:25.969Z,25.92
2022-10-22T17:08:29.145Z,21.70
2022-10-22T17:13:30.551Z,32.63
2022-10-22T17:18:32.489Z,25.17
2022-10-22T17:23:34.040Z,23.55
2022-10-22T17:28:36.478Z,26.42
2022-10-22T17:33:37.912Z,24.05
2022-10-22T17:38:40.334Z,21.80
2022-10-22T17:43:41.817Z,25.42
2022-10-22T17:48:43.492Z,21.85
2022-10-22T17:53:50.166Z,23.67
2022-10-22T17:58:52.177Z,24.27
2022-10-22T18:03:54.167Z,20.65
2022-10-22T18:08:55.689Z,20.05
2022-10-22T18:13:57.184Z,18.92
2022-10-22T18:18:58.629Z,24.10
2022-10-22T18:24:00.182Z,20.73
2022-10-22T18:29:01.699Z,17.17
2022-10-22T18:34:03.133Z,19.85
2022-10-22T18:39:04.940Z,20.58
2022-10-22T18:44:06.575Z,20.52
2022-10-22T18:49:08.283Z,22.55
2022-10-22T18:54:22.532Z,20.42
2022-10-22T18:59:25.770Z,19.08
2022-10-22T19:04:33.201Z,21.73
2022-10-22T19:09:34.778Z,18.77
2022-10-22T19:14:36.501Z,20.83
2022-10-22T19:19:37.909Z,15.77
2022-10-22T19:24:39.495Z,17.70
2022-10-22T19:29:40.937Z,15.57
2022-10-22T19:34:43.080Z,19.23
2022-10-22T19:39:44.573Z,14.43
2022-10-22T19:44:46.057Z,15.98
2022-10-22T19:49:47.464Z,17.17
2022-10-22T19:54:48.969Z,22.02
2022-10-22T19:59:50.976Z,15.63
2022-10-22T20:04:52.373Z,12.70
2022-10-22T20:09:53.942Z,6.07
2022-10-22T20:14:55.475Z,9.48
2022-10-22T20:19:57.065Z,5.70
2022-10-22T20:24:58.532Z,3.67
2022-10-22T20:29:59.974Z,5.10
2022-10-22T20:35:01.521Z,5.25
2022-10-22T20:40:03.162Z,4.53
2022-10-22T20:45:04.894Z,5.65
2022-10-22T20:50:06.508Z,4.95
2022-10-22T20:55:08.092Z,4.85
2022-10-22T21:00:09.845Z,5.53
2022-10-22T21:05:11.409Z,4.22
2022-10-22T21:10:12.865Z,6.28
2022-10-22T21:15:14.343Z,5.07
2022-10-22T21:20:17.127Z,4.72
2022-10-22T21:25:20.226Z,4.55
2022-10-22T21:30:21.634Z,4.95
2022-10-22T21:35:23.149Z,4.45
2022-10-22T21:40:24.664Z,4.43
2022-10-22T21:45:26.145Z,4.20
2022-10-22T21:50:27.546Z,4.15
2022-10-22T21:55:30.500Z,3.92
2022-10-22T22:00:31.992Z,3.97
2022-10-22T22:05:33.461Z,3.88
2022-10-22T22:10:34.948Z,3.83
2022-10-22T22:15:36.529Z,6.13
2022-10-22T22:20:38.060Z,5.00
2022-10-22T22:25:39.493Z,4.43
2022-10-22T22:30:40.925Z,5.00
2022-10-22T22:35:42.359Z,4.30
2022-10-22T22:40:43.861Z,6.15
2022-10-22T22:45:45.294Z,17.15
2022-10-22T22:50:46.683Z,7.88
2022-10-22T22:55:49.204Z,75.28
2022-10-22T23:00:50.668Z,5.80
2022-10-22T23:05:52.085Z,5.72
2022-10-22T23:10:53.488Z,7.80
2022-10-22T23:15:54.929Z,11.10
2022-10-22T23:20:56.331Z,5.18
2022-10-22T23:31:00.159Z,10.82
2022-10-22T23:36:02.242Z,7.13
2022-10-22T23:41:03.863Z,6.00
2022-10-22T23:46:06.029Z,6.75
2022-10-22T23:51:14.684Z,9.15
2022-10-22T23:56:17.032Z,5.03
